Time;durP1;ratioP1;P1;durP2;ratioP2;P2;SDS_P1;SDS_P2;PMS_P1;PMS_P2;Temp;Humidity;BMP_temperature;BMP_pressure;BME280_temperature;BME280_humidity;BME280_pressure;Samples;Min_cycle;Max_cycle;Signal;HPM_P1;HPM_P2
2021/12/28 00:05:47;;;;;;;16.27;14.77;;;;;;;;;;12501039;28;20034;-73
2021/12/28 00:11:49;;;;;;;15.85;14.45;;;;;;;;;;12501115;28;20426;-73
2021/12/28 00:17:59;;;;;;;15.02;13.63;;;;;;;;;;12499245;28;20045;-73
2021/12/28 00:24:01;;;;;;;17.65;15.90;;;;;;;;;;12500384;28;20030;-73
2021/12/28 00:30:04;;;;;;;16.00;14.60;;;;;;;;;;12500279;28;20038;-73
2021/12/28 00:36:05;;;;;;;16.58;15.05;;;;;;;;;;12499655;28;20498;-74
2021/12/28 00:42:08;;;;;;;17.50;15.80;;;;;;;;;;12481911;28;20105;-73
2021/12/28 00:48:10;;;;;;;17.88;16.13;;;;;;;;;;12498026;28;20502;-73
2021/12/28 00:54:12;;;;;;;16.02;14.48;;;;;;;;;;12498350;28;20033;-73
2021/12/28 01:00:15;;;;;;;16.23;14.75;;;;;;;;;;12499471;28;20038;-73
2021/12/28 01:06:16;;;;;;;;;;;;;;;;;;12498848;28;20029;-73
2021/12/28 01:12:18;;;;;;;18.08;16.23;;;;;;;;;;12497887;28;19917;-73
2021/12/28 01:18:19;;;;;;;17.63;16.02;;;;;;;;;;12497003;28;20068;-73
2021/12/28 01:24:21;;;;;;;18.80;17.10;;;;;;;;;;12496008;28;20033;-73
2021/12/28 01:30:25;;;;;;;17.70;16.13;;;;;;;;;;12495881;28;20036;-73
2021/12/28 01:36:26;;;;;;;18.48;16.77;;;;;;;;;;12497200;28;20052;-73
2021/12/28 01:42:29;;;;;;;17.05;15.48;;;;;;;;;;12496110;28;20038;-73
2021/12/28 01:48:32;;;;;;;16.25;14.85;;;;;;;;;;12495294;28;20036;-73
2021/12/28 01:54:34;;;;;;;17.08;15.48;;;;;;;;;;12495919;28;20060;-73
2021/12/28 02:00:36;;;;;;;17.08;15.60;;;;;;;;;;12495824;28;20199;-73
2021/12/28 02:06:38;;;;;;;17.17;15.67;;;;;;;;;;12494066;28;20136;-74
2021/12/28 02:12:40;;;;;;;15.00;13.68;;;;;;;;;;12495207;28;20398;-74
2021/12/28 02:18:41;;;;;;;15.00;13.73;;;;;;;;;;12494232;28;20041;-74
2021/12/28 02:24:43;;;;;;;16.80;15.27;;;;;;;;;;12493607;28;20045;-72
2021/12/28 02:30:46;;;;;;;18.10;16.40;;;;;;;;;;12494670;28;20037;-72
2021/12/28 02:36:48;;;;;;;21.58;19.67;;;;;;;;;;12494261;28;20041;-73
2021/12/28 02:42:50;;;;;;;17.42;15.93;;;;;;;;;;12495729;28;20036;-73
2021/12/28 02:48:52;;;;;;;18.65;17.15;;;;;;;;;;12495055;28;20038;-73
2021/12/28 02:54:54;;;;;;;17.98;16.42;;;;;;;;;;12494046;28;20038;-73
2021/12/28 03:01:09;;;;;;;16.80;15.30;;;;;;;;;;12494791;28;20045;-73
2021/12/28 03:07:10;;;;;;;14.18;12.98;;;;;;;;;;12493963;28;20427;-73
2021/12/28 03:13:23;;;;;;;13.05;11.93;;;;;;;;;;12493376;28;20056;-73
2021/12/28 03:19:24;;;;;;;13.93;12.65;;;;;;;;;;12499494;28;20041;-73
2021/12/28 03:25:26;;;;;;;12.77;11.63;;;;;;;;;;12501948;28;20483;-73
2021/12/28 03:31:28;;;;;;;13.93;12.73;;;;;;;;;;12502835;28;20405;-73
2021/12/28 03:37:34;;;;;;;11.05;10.07;;;;;;;;;;12502090;28;20053;-73
2021/12/28 03:43:36;;;;;;;12.10;11.00;;;;;;;;;;12501660;28;20034;-72
2021/12/28 03:49:37;;;;;;;14.40;13.10;;;;;;;;;;12500763;28;20045;-73
2021/12/28 03:55:39;;;;;;;11.93;10.90;;;;;;;;;;12501635;28;20412;-73
2021/12/28 04:01:41;;;;;;;11.88;10.88;;;;;;;;;;12501515;28;20029;-73
2021/12/28 04:07:44;;;;;;;11.00;10.02;;;;;;;;;;12500953;28;20048;-72
2021/12/28 04:13:48;;;;;;;11.23;10.32;;;;;;;;;;12501416;28;20053;-73
2021/12/28 04:19:49;;;;;;;10.38;9.57;;;;;;;;;;12500642;28;20049;-73
2021/12/28 04:25:51;;;;;;;9.63;8.82;;;;;;;;;;12500435;28;20025;-73
2021/12/28 04:31:53;;;;;;;10.25;9.35;;;;;;;;;;12498936;28;20037;-73
2021/12/28 04:37:54;;;;;;;10.73;9.80;;;;;;;;;;12499987;28;20034;-73
2021/12/28 04:43:59;;;;;;;9.88;8.98;;;;;;;;;;12498556;28;20128;-73
2021/12/28 04:50:01;;;;;;;9.25;8.55;;;;;;;;;;12499277;28;20414;-73
2021/12/28 04:56:02;;;;;;;9.27;8.48;;;;;;;;;;12498156;28;20058;-73
2021/12/28 05:02:04;;;;;;;9.40;8.70;;;;;;;;;;12498901;28;20056;-73
2021/12/28 05:08:06;;;;;;;8.77;8.05;;;;;;;;;;12498491;28;20029;-73
2021/12/28 05:14:09;;;;;;;9.82;8.93;;;;;;;;;;12498718;28;20050;-73
2021/12/28 05:20:11;;;;;;;9.55;8.75;;;;;;;;;;12496427;28;20045;-73
2021/12/28 05:26:13;;;;;;;11.33;10.33;;;;;;;;;;12496594;28;20036;-73
2021/12/28 05:32:15;;;;;;;12.20;10.90;;;;;;;;;;12497380;28;20410;-73
2021/12/28 05:38:17;;;;;;;11.80;10.65;;;;;;;;;;12496110;28;20052;-73
2021/12/28 05:44:18;;;;;;;10.32;9.32;;;;;;;;;;12495389;28;20026;-73
2021/12/28 05:50:20;;;;;;;11.43;10.32;;;;;;;;;;12496681;28;20029;-74
2021/12/28 05:56:22;;;;;;;10.95;9.95;;;;;;;;;;12494844;28;20048;-74
2021/12/28 06:02:24;;;;;;;9.45;8.65;;;;;;;;;;12495842;28;20052;-74
2021/12/28 06:08:25;;;;;;;9.93;9.13;;;;;;;;;;12494756;28;20045;-74
2021/12/28 06:14:27;;;;;;;10.48;9.52;;;;;;;;;;12495901;28;20148;-73
2021/12/28 06:20:29;;;;;;;10.73;9.82;;;;;;;;;;12493972;28;20044;-73
2021/12/28 06:26:31;;;;;;;10.63;9.73;;;;;;;;;;12493336;28;20030;-73
2021/12/28 06:32:33;;;;;;;10.03;9.03;;;;;;;;;;12493550;28;20044;-73
2021/12/28 06:38:34;;;;;;;11.32;10.32;;;;;;;;;;12494275;28;20042;-74
2021/12/28 06:44:36;;;;;;;11.73;10.75;;;;;;;;;;12493896;28;20403;-73
2021/12/28 06:50:38;;;;;;;10.98;9.98;;;;;;;;;;12493329;28;20092;-73
2021/12/28 06:56:40;;;;;;;10.77;9.88;;;;;;;;;;12502914;28;20384;-74
2021/12/28 07:02:42;;;;;;;11.90;10.90;;;;;;;;;;12504303;28;20040;-73
2021/12/28 07:08:44;;;;;;;15.70;14.30;;;;;;;;;;12502999;28;20029;-74
2021/12/28 07:14:46;;;;;;;12.45;11.45;;;;;;;;;;12504095;28;20057;-73
2021/12/28 07:20:48;;;;;;;12.07;11.02;;;;;;;;;;12509651;28;20049;-74
2021/12/28 07:26:50;;;;;;;11.82;10.82;;;;;;;;;;12552113;28;20025;-74
2021/12/28 07:32:52;;;;;;;13.20;11.95;;;;;;;;;;12550707;28;20087;-74
2021/12/28 07:38:54;;;;;;;11.07;10.10;;;;;;;;;;12534106;28;20052;-73
2021/12/28 07:44:56;;;;;;;12.68;11.40;;;;;;;;;;12550623;28;20481;-73
2021/12/28 07:50:58;;;;;;;11.63;10.63;;;;;;;;;;12550133;28;20367;-75
2021/12/28 07:57:00;;;;;;;11.13;10.15;;;;;;;;;;12549647;28;20059;-73
2021/12/28 08:03:04;;;;;;;12.07;10.93;;;;;;;;;;12549611;28;20044;-73
2021/12/28 08:09:06;;;;;;;12.23;11.07;;;;;;;;;;12551100;28;20033;-73
2021/12/28 08:15:08;;;;;;;16.20;14.68;;;;;;;;;;12549388;28;20045;-73
2021/12/28 08:21:10;;;;;;;13.25;12.02;;;;;;;;;;12548744;28;20051;-73
2021/12/28 08:27:12;;;;;;;13.73;12.43;;;;;;;;;;12549618;28;20033;-73
2021/12/28 08:33:14;;;;;;;18.40;16.75;;;;;;;;;;12532090;28;20051;-73
2021/12/28 08:39:15;;;;;;;36.55;32.72;;;;;;;;;;12549473;28;20041;-73
2021/12/28 08:45:17;;;;;;;20.95;18.70;;;;;;;;;;12548655;28;20064;-73
2021/12/28 08:51:19;;;;;;;25.25;22.65;;;;;;;;;;12548668;28;20045;-74
2021/12/28 08:57:21;;;;;;;20.25;18.25;;;;;;;;;;12548203;28;20044;-73
2021/12/28 09:03:23;;;;;;;23.03;20.80;;;;;;;;;;12548306;28;20474;-73
2021/12/28 09:09:25;;;;;;;15.95;14.35;;;;;;;;;;12546816;28;20045;-73
2021/12/28 09:15:27;;;;;;;25.42;22.55;;;;;;;;;;12547168;28;20025;-73
2021/12/28 09:21:29;;;;;;;18.40;16.50;;;;;;;;;;12547453;28;20434;-73
2021/12/28 09:27:30;;;;;;;15.07;13.57;;;;;;;;;;12546732;28;20033;-73
2021/12/28 09:33:32;;;;;;;18.13;16.33;;;;;;;;;;12528957;28;20037;-73
2021/12/28 09:39:34;;;;;;;16.52;15.02;;;;;;;;;;12546559;28;20036;-74
2021/12/28 09:45:36;;;;;;;14.55;13.20;;;;;;;;;;12545926;28;20041;-73
2021/12/28 09:51:38;;;;;;;12.17;10.97;;;;;;;;;;12545694;28;20035;-74
2021/12/28 09:57:40;;;;;;;12.73;11.40;;;;;;;;;;12544771;28;20047;-74
2021/12/28 10:03:42;;;;;;;14.77;13.30;;;;;;;;;;12545174;28;20037;-73
2021/12/28 10:09:44;;;;;;;13.45;12.05;;;;;;;;;;12545225;28;20064;-73
2021/12/28 10:15:46;;;;;;;16.95;15.15;;;;;;;;;;12545153;28;20041;-74
2021/12/28 10:21:48;;;;;;;12.60;11.27;;;;;;;;;;12543662;28;20505;-74
2021/12/28 10:27:51;;;;;;;12.48;11.15;;;;;;;;;;12542139;28;20036;-73
2021/12/28 10:33:52;;;;;;;;;;;;;;;;;;12544350;28;20040;-73
2021/12/28 10:39:58;;;;;;;14.77;13.27;;;;;;;;;;12539585;28;20134;-73
2021/12/28 10:46:04;;;;;;;12.45;11.25;;;;;;;;;;12541095;28;20040;-73
2021/12/28 10:52:24;;;;;;;12.93;11.73;;;;;;;;;;12542606;28;20040;-74
2021/12/28 10:58:39;;;;;;;19.65;17.63;;;;;;;;;;12543470;28;20041;-74
2021/12/28 11:04:43;;;;;;;20.30;18.10;;;;;;;;;;12542514;28;20393;-73
2021/12/28 11:10:50;;;;;;;18.92;16.25;;;;;;;;;;12542628;28;20097;-74
2021/12/28 11:16:53;;;;;;;21.20;18.77;;;;;;;;;;12542208;28;20398;-73
2021/12/28 11:23:11;;;;;;;18.73;16.75;;;;;;;;;;12542872;28;20493;-74
2021/12/28 11:29:20;;;;;;;19.38;17.40;;;;;;;;;;12542708;28;20037;-74
2021/12/28 11:35:22;;;;;;;16.10;14.40;;;;;;;;;;12542439;28;20044;-74
2021/12/28 11:41:25;;;;;;;20.73;18.55;;;;;;;;;;12548388;28;20494;-74
2021/12/28 11:47:27;;;;;;;17.73;15.90;;;;;;;;;;12552763;28;20037;-74
2021/12/28 11:53:29;;;;;;;16.85;14.68;;;;;;;;;;12550939;28;20040;-74
2021/12/28 11:59:32;;;;;;;17.90;15.68;;;;;;;;;;12551080;28;20047;-73
2021/12/28 12:05:33;;;;;;;;;;;;;;;;;;12550977;28;20482;-73
2021/12/28 12:11:43;;;;;;;16.15;14.38;;;;;;;;;;12549346;28;20128;-73
2021/12/28 12:17:45;;;;;;;15.95;13.50;;;;;;;;;;12549856;28;20055;-73
2021/12/28 12:23:48;;;;;;;13.50;12.13;;;;;;;;;;12549840;28;20025;-73
2021/12/28 12:29:50;;;;;;;;;;;;;;;;;;12532337;28;20032;-73
2021/12/28 12:35:59;;;;;;;12.25;10.13;;;;;;;;;;12548820;28;19915;-73
2021/12/28 12:42:01;;;;;;;11.70;10.48;;;;;;;;;;12548666;28;20045;-73
2021/12/28 12:48:03;;;;;;;12.68;11.20;;;;;;;;;;12549389;28;20064;-73
2021/12/28 12:54:13;;;;;;;13.60;11.55;;;;;;;;;;12546111;28;20368;-73
2021/12/28 13:00:18;;;;;;;17.55;14.43;;;;;;;;;;12548192;28;20041;-73
2021/12/28 13:06:38;;;;;;;14.82;12.25;;;;;;;;;;12546960;28;20029;-73
2021/12/28 13:12:42;;;;;;;13.38;11.55;;;;;;;;;;12548267;28;20512;-73
2021/12/28 13:18:43;;;;;;;12.93;10.75;;;;;;;;;;12547638;28;20078;-73
2021/12/28 13:24:45;;;;;;;11.88;10.65;;;;;;;;;;12528770;28;20036;-73
2021/12/28 13:30:47;;;;;;;14.35;11.27;;;;;;;;;;12545476;28;20033;-73
2021/12/28 13:36:52;;;;;;;12.65;9.63;;;;;;;;;;12528397;28;20037;-73
2021/12/28 13:43:00;;;;;;;12.55;10.07;;;;;;;;;;12545842;28;20029;-73
2021/12/28 13:49:02;;;;;;;13.50;11.45;;;;;;;;;;12544425;28;20493;-73
2021/12/28 13:55:04;;;;;;;12.30;9.15;;;;;;;;;;12546173;28;20040;-73
2021/12/28 14:01:13;;;;;;;12.10;10.30;;;;;;;;;;12543641;28;20636;-73
2021/12/28 14:07:16;;;;;;;12.50;10.50;;;;;;;;;;12544991;28;20398;-73
2021/12/28 14:13:19;;;;;;;13.60;10.53;;;;;;;;;;12543778;28;20414;-73
2021/12/28 14:19:21;;;;;;;14.48;11.07;;;;;;;;;;12543489;28;20052;-73
2021/12/28 14:25:23;;;;;;;12.38;10.00;;;;;;;;;;12545698;28;20039;-72
2021/12/28 14:31:27;;;;;;;12.38;9.30;;;;;;;;;;12544271;28;20406;-72
2021/12/28 14:37:28;;;;;;;12.85;9.73;;;;;;;;;;12542138;28;20045;-74
2021/12/28 14:43:31;;;;;;;12.88;9.93;;;;;;;;;;12543195;28;20386;-72
2021/12/28 14:49:34;;;;;;;13.02;10.15;;;;;;;;;;12542619;28;20128;-73
2021/12/28 14:55:40;;;;;;;7.43;6.45;;;;;;;;;;12543552;28;20025;-73
2021/12/28 15:01:41;;;;;;;12.20;9.75;;;;;;;;;;12542095;28;20394;-73
2021/12/28 15:07:44;;;;;;;13.32;9.68;;;;;;;;;;12544015;28;20037;-73
2021/12/28 15:13:45;;;;;;;12.48;10.38;;;;;;;;;;12545412;28;20061;-73
2021/12/28 15:19:47;;;;;;;12.30;10.80;;;;;;;;;;12552077;28;20060;-73
2021/12/28 15:25:50;;;;;;;12.43;10.77;;;;;;;;;;12552110;28;20048;-73
2021/12/28 15:31:52;;;;;;;17.48;13.65;;;;;;;;;;12552283;28;20482;-74
2021/12/28 15:38:01;;;;;;;16.67;12.57;;;;;;;;;;12550462;28;20367;-73
2021/12/28 15:44:03;;;;;;;22.25;15.40;;;;;;;;;;12551890;28;20033;-73
2021/12/28 15:50:09;;;;;;;21.70;14.45;;;;;;;;;;12551866;28;20386;-73
2021/12/28 15:56:11;;;;;;;22.60;15.60;;;;;;;;;;12551270;28;20037;-73
2021/12/28 16:02:13;;;;;;;23.15;15.15;;;;;;;;;;12549804;28;20509;-74
2021/12/28 16:08:15;;;;;;;18.92;14.40;;;;;;;;;;12550838;28;20043;-73
2021/12/28 16:14:17;;;;;;;18.85;13.65;;;;;;;;;;12550508;28;20052;-73
2021/12/28 16:20:20;;;;;;;20.33;14.50;;;;;;;;;;12548748;28;20064;-73
2021/12/28 16:26:21;;;;;;;;;;;;;;;;;;12547497;28;20032;-73
2021/12/28 16:32:23;;;;;;;20.30;13.88;;;;;;;;;;12547982;28;19908;-73
2021/12/28 16:38:25;;;;;;;11.05;8.25;;;;;;;;;;12549260;28;20048;-73
2021/12/28 16:44:28;;;;;;;21.80;16.85;;;;;;;;;;12547619;28;20040;-73
2021/12/28 16:50:31;;;;;;;20.75;15.38;;;;;;;;;;12548412;28;20036;-73
2021/12/28 16:56:34;;;;;;;21.42;15.10;;;;;;;;;;12548635;28;20044;-73
2021/12/28 17:02:35;;;;;;;19.73;14.00;;;;;;;;;;12548355;28;20509;-73
2021/12/28 17:08:37;;;;;;;20.35;14.25;;;;;;;;;;12547012;28;20037;-72
2021/12/28 17:14:39;;;;;;;17.33;12.75;;;;;;;;;;12547519;28;20087;-73
2021/12/28 17:20:41;;;;;;;17.83;12.37;;;;;;;;;;12546149;28;20041;-73
2021/12/28 17:26:43;;;;;;;17.65;13.52;;;;;;;;;;12546052;28;20528;-73
2021/12/28 17:32:45;;;;;;;18.70;13.18;;;;;;;;;;12545408;28;20033;-73
2021/12/28 17:38:46;;;;;;;19.70;13.52;;;;;;;;;;12528310;28;20491;-73
2021/12/28 17:44:48;;;;;;;21.13;14.75;;;;;;;;;;12505205;28;20044;-72
2021/12/28 17:50:50;;;;;;;19.25;14.60;;;;;;;;;;12496525;28;20411;-73
2021/12/28 17:56:52;;;;;;;23.75;17.75;;;;;;;;;;12496618;28;20284;-73
2021/12/28 18:02:54;;;;;;;18.70;13.98;;;;;;;;;;12495793;28;20521;-74
2021/12/28 18:08:56;;;;;;;18.02;13.13;;;;;;;;;;12494857;28;20041;-74
2021/12/28 18:14:58;;;;;;;6.20;5.05;;;;;;;;;;12478356;28;20072;-74
2021/12/28 18:21:00;;;;;;;23.45;17.63;;;;;;;;;;12495273;28;20068;-74
2021/12/28 18:27:03;;;;;;;22.40;17.92;;;;;;;;;;12495295;28;20045;-73
2021/12/28 18:33:08;;;;;;;23.55;16.45;;;;;;;;;;12494859;28;20040;-73
2021/12/28 18:39:09;;;;;;;23.40;17.25;;;;;;;;;;12495045;28;20389;-73
2021/12/28 18:45:11;;;;;;;26.77;18.80;;;;;;;;;;12477662;28;20033;-73
2021/12/28 18:51:13;;;;;;;24.52;18.58;;;;;;;;;;12492600;28;20041;-73
2021/12/28 18:57:15;;;;;;;25.67;17.00;;;;;;;;;;12493592;28;20040;-73
2021/12/28 19:03:17;;;;;;;26.60;20.77;;;;;;;;;;12476858;28;20035;-74
2021/12/28 19:09:20;;;;;;;20.90;15.50;;;;;;;;;;12493810;28;20029;-74
2021/12/28 19:15:22;;;;;;;21.27;16.15;;;;;;;;;;12492194;28;20054;-73
2021/12/28 19:21:24;;;;;;;20.73;16.15;;;;;;;;;;12493396;28;20418;-74
2021/12/28 19:27:26;;;;;;;24.80;18.27;;;;;;;;;;12492230;28;20049;-73
2021/12/28 19:33:28;;;;;;;24.33;17.85;;;;;;;;;;12491913;28;20052;-74
2021/12/28 19:39:30;;;;;;;;;;;;;;;;;;12494004;28;20046;-74
2021/12/28 19:45:32;;;;;;;25.80;19.63;;;;;;;;;;12492082;28;19920;-74
2021/12/28 19:51:36;;;;;;;28.03;19.93;;;;;;;;;;12491844;28;20391;-73
2021/12/28 19:57:39;;;;;;;30.15;21.77;;;;;;;;;;12493433;28;20048;-73
2021/12/28 20:03:42;;;;;;;37.40;28.05;;;;;;;;;;12500666;28;20037;-72
2021/12/28 20:09:44;;;;;;;39.65;30.80;;;;;;;;;;12500454;28;20045;-72
2021/12/28 20:15:46;;;;;;;43.77;33.13;;;;;;;;;;12500242;28;20044;-74
2021/12/28 20:21:48;;;;;;;41.78;31.13;;;;;;;;;;12499309;28;20049;-73
2021/12/28 20:27:49;;;;;;;36.37;27.50;;;;;;;;;;12500738;28;20037;-73
2021/12/28 20:33:51;;;;;;;30.95;22.95;;;;;;;;;;12499242;28;20041;-73
2021/12/28 20:39:53;;;;;;;28.92;22.58;;;;;;;;;;12499261;28;20361;-74
2021/12/28 20:45:55;;;;;;;25.27;19.10;;;;;;;;;;12482197;28;20029;-73
2021/12/28 20:51:58;;;;;;;23.75;17.77;;;;;;;;;;12498755;28;20037;-73
2021/12/28 20:58:01;;;;;;;26.02;18.48;;;;;;;;;;12499340;28;20486;-74
2021/12/28 21:04:03;;;;;;;23.48;15.88;;;;;;;;;;12481168;28;20037;-72
2021/12/28 21:10:06;;;;;;;24.75;18.30;;;;;;;;;;12498437;28;20415;-73
2021/12/28 21:16:08;;;;;;;23.80;16.83;;;;;;;;;;12498107;28;20048;-73
2021/12/28 21:22:10;;;;;;;20.33;15.77;;;;;;;;;;12496756;28;20045;-74
2021/12/28 21:28:12;;;;;;;23.88;19.75;;;;;;;;;;12497815;28;20169;-74
2021/12/28 21:34:14;;;;;;;27.08;20.35;;;;;;;;;;12497272;28;20041;-74
2021/12/28 21:40:18;;;;;;;32.28;23.65;;;;;;;;;;12496617;28;20045;-73
2021/12/28 21:46:19;;;;;;;37.83;28.80;;;;;;;;;;12479381;28;20360;-73
2021/12/28 21:52:22;;;;;;;32.47;24.48;;;;;;;;;;12496649;28;20026;-74
2021/12/28 21:58:25;;;;;;;33.03;22.77;;;;;;;;;;12495322;28;20084;-72
2021/12/28 22:04:27;;;;;;;28.75;21.27;;;;;;;;;;12495931;28;20049;-74
2021/12/28 22:10:33;;;;;;;29.70;22.73;;;;;;;;;;12495041;28;20422;-73
2021/12/28 22:16:34;;;;;;;26.92;20.73;;;;;;;;;;12495854;28;20042;-74
2021/12/28 22:22:36;;;;;;;25.77;19.13;;;;;;;;;;12494144;28;20049;-74
2021/12/28 22:28:38;;;;;;;26.10;18.80;;;;;;;;;;12495229;28;20036;-73
2021/12/28 22:34:40;;;;;;;27.30;21.00;;;;;;;;;;12493690;28;20045;-73
2021/12/28 22:40:46;;;;;;;24.10;18.83;;;;;;;;;;12493924;28;20375;-73
2021/12/28 22:46:48;;;;;;;24.60;19.65;;;;;;;;;;12494984;28;20037;-74
2021/12/28 22:52:50;;;;;;;25.00;18.33;;;;;;;;;;12493337;28;20070;-73
2021/12/28 22:58:51;;;;;;;24.55;18.25;;;;;;;;;;12492744;28;20045;-73
2021/12/28 23:04:53;;;;;;;27.75;21.70;;;;;;;;;;12494461;28;20040;-72
2021/12/28 23:10:55;;;;;;;27.60;21.23;;;;;;;;;;12492901;28;20042;-72
2021/12/28 23:16:57;;;;;;;23.27;18.70;;;;;;;;;;12492601;28;20223;-72
2021/12/28 23:22:59;;;;;;;33.83;25.42;;;;;;;;;;12493687;28;20049;-73
2021/12/28 23:29:01;;;;;;;32.05;22.67;;;;;;;;;;12494410;28;20037;-73
2021/12/28 23:35:04;;;;;;;25.38;20.25;;;;;;;;;;12497126;28;20044;-73
2021/12/28 23:41:05;;;;;;;;;;;;;;;;;;12504517;28;20080;-73
2021/12/28 23:47:07;;;;;;;27.33;20.63;;;;;;;;;;12502610;28;20367;-73
2021/12/28 23:53:09;;;;;;;38.35;29.30;;;;;;;;;;12502256;28;20025;-73
2021/12/28 23:59:10;;;;;;;41.63;31.23;;;;;;;;;;12500637;28;20041;-73
